This is the latest recevied weather packets stored in our database for station/object HK6RM-19. If no packets are shown the sender has not sent any weather packets the latest 10 day(s).
| Time | Temp. | Humidity | Pressure | Rain* | Wind** | Luminosity | Snow |
|---|---|---|---|---|---|---|---|
| 1777220472 | 20.56° C | 68% | 1014 hPa | 0 mm | - | - | - |
| 1777219631 | 20.56° C | 68% | 1014 hPa | 0 mm | - | - | - |
| 1777218791 | 20.56° C | 68% | 1014 hPa | 0 mm | - | - | - |
| 1777217950 | 18.33° C | 67% | 1015 hPa | 0 mm | - | - | - |
| 1777217110 | 18.33° C | 67% | 1015 hPa | 0 mm | - | - | - |
| 1777216268 | 18.33° C | 66% | 1015 hPa | 0 mm | - | - | - |
| 1777215427 | 18.33° C | 65% | 1015 hPa | 0 mm | - | - | - |
| 1777214587 | 17.78° C | 63% | 1016 hPa | 0 mm | - | - | - |
| 1777213745 | 17.78° C | 63% | 1016 hPa | 0 mm | - | - | - |
| 1777212905 | 17.78° C | 63% | 1016 hPa | 0 mm | - | - | - |
| 1777212063 | 18.33° C | 63% | 1016 hPa | 0 mm | - | - | - |
| 1777211223 | 18.33° C | 63% | 1016 hPa | 0 mm | - | - | - |
| 1777210382 | 14.44° C | 82% | 1016 hPa | 0 mm | - | - | - |
| 1777209542 | 14.44° C | 82% | 1017 hPa | 0 mm | - | - | - |
| 1777208701 | 14.44° C | 82% | 1017 hPa | 0 mm | - | - | - |
| 1777207861 | 14.44° C | 82% | 1017 hPa | 0 mm | - | - | - |
| 1777207020 | 13.89° C | 86% | 1017 hPa | 0 mm | - | - | - |
| 1777206180 | 13.89° C | 86% | 1017 hPa | 0 mm | - | - | - |
| 1777205339 | 13.89° C | 87% | 1017 hPa | 0 mm | - | - | - |
| 1777204498 | 13.89° C | 88% | 1017 hPa | 0 mm | - | - | - |
| 1777203657 | 13.89° C | 88% | 1017 hPa | 0 mm | - | - | - |
| 1777202816 | 13.89° C | 88% | 1017 hPa | 0 mm | - | - | - |
| 1777201976 | 13.89° C | 88% | 1017 hPa | 0 mm | - | - | - |
| 1777201135 | 13.89° C | 88% | 1017 hPa | 0 mm | - | - | - |
| 1777200295 | 13.89° C | 88% | 1017 hPa | 0 mm | - | - | - |
* Rain latest hour (hover to see other rain measurements)
** Current wind speed in m/s (hover to see current wind gust speed)